sensor_id;sensor_type;location;lat;lon;timestamp;P1;durP1;ratioP1;P2;durP2;ratioP2
10191;SDS011;17580;50.850;4.504;2022-07-29T00:00:12;2.20;;;1.40;;
10191;SDS011;17580;50.850;4.504;2022-07-29T00:02:39;3.20;;;1.30;;
10191;SDS011;17580;50.850;4.504;2022-07-29T00:05:07;2.37;;;1.33;;
10191;SDS011;17580;50.850;4.504;2022-07-29T00:07:35;1.60;;;1.37;;
10191;SDS011;17580;50.850;4.504;2022-07-29T00:10:02;3.73;;;1.43;;
10191;SDS011;17580;50.850;4.504;2022-07-29T00:12:29;3.23;;;1.43;;
10191;SDS011;17580;50.850;4.504;2022-07-29T00:14:58;3.43;;;1.50;;
10191;SDS011;17580;50.850;4.504;2022-07-29T00:17:25;2.07;;;1.87;;
10191;SDS011;17580;50.850;4.504;2022-07-29T00:19:52;1.90;;;1.30;;
10191;SDS011;17580;50.850;4.504;2022-07-29T00:22:19;2.63;;;1.33;;
10191;SDS011;17580;50.850;4.504;2022-07-29T00:24:47;1.47;;;1.37;;
10191;SDS011;17580;50.850;4.504;2022-07-29T00:27:14;1.47;;;1.23;;
10191;SDS011;17580;50.850;4.504;2022-07-29T00:29:41;3.70;;;1.63;;
10191;SDS011;17580;50.850;4.504;2022-07-29T00:32:09;1.80;;;1.40;;
10191;SDS011;17580;50.850;4.504;2022-07-29T00:34:36;1.57;;;1.47;;
10191;SDS011;17580;50.850;4.504;2022-07-29T00:37:19;1.50;;;1.27;;
10191;SDS011;17580;50.850;4.504;2022-07-29T00:39:46;1.70;;;1.20;;
10191;SDS011;17580;50.850;4.504;2022-07-29T00:42:13;4.47;;;1.47;;
10191;SDS011;17580;50.850;4.504;2022-07-29T00:44:41;1.97;;;1.80;;
10191;SDS011;17580;50.850;4.504;2022-07-29T00:47:10;1.60;;;1.50;;
10191;SDS011;17580;50.850;4.504;2022-07-29T00:49:38;3.93;;;1.40;;
10191;SDS011;17580;50.850;4.504;2022-07-29T00:52:07;1.47;;;1.33;;
10191;SDS011;17580;50.850;4.504;2022-07-29T00:54:34;1.63;;;1.53;;
10191;SDS011;17580;50.850;4.504;2022-07-29T00:57:02;1.43;;;1.33;;
10191;SDS011;17580;50.850;4.504;2022-07-29T00:59:29;1.57;;;1.40;;
10191;SDS011;17580;50.850;4.504;2022-07-29T01:01:56;1.50;;;1.40;;
10191;SDS011;17580;50.850;4.504;2022-07-29T01:04:24;1.37;;;1.20;;
10191;SDS011;17580;50.850;4.504;2022-07-29T01:06:51;2.93;;;1.47;;
10191;SDS011;17580;50.850;4.504;2022-07-29T01:09:20;1.67;;;1.40;;
10191;SDS011;17580;50.850;4.504;2022-07-29T01:11:48;1.93;;;1.73;;
10191;SDS011;17580;50.850;4.504;2022-07-29T01:14:15;1.10;;;1.00;;
10191;SDS011;17580;50.850;4.504;2022-07-29T01:16:45;1.30;;;1.20;;
10191;SDS011;17580;50.850;4.504;2022-07-29T01:19:22;1.27;;;1.27;;
10191;SDS011;17580;50.850;4.504;2022-07-29T01:22:12;1.23;;;1.13;;
10191;SDS011;17580;50.850;4.504;2022-07-29T01:25:00;1.77;;;1.40;;
10191;SDS011;17580;50.850;4.504;2022-07-29T01:27:38;2.43;;;1.27;;
10191;SDS011;17580;50.850;4.504;2022-07-29T01:30:17;1.30;;;1.20;;
10191;SDS011;17580;50.850;4.504;2022-07-29T01:32:44;1.67;;;1.20;;
10191;SDS011;17580;50.850;4.504;2022-07-29T01:35:17;1.73;;;1.63;;
10191;SDS011;17580;50.850;4.504;2022-07-29T01:37:48;2.20;;;1.30;;
10191;SDS011;17580;50.850;4.504;2022-07-29T01:40:22;1.37;;;1.23;;
10191;SDS011;17580;50.850;4.504;2022-07-29T01:42:54;2.90;;;1.60;;
10191;SDS011;17580;50.850;4.504;2022-07-29T01:45:26;5.93;;;1.90;;
10191;SDS011;17580;50.850;4.504;2022-07-29T01:48:02;1.70;;;1.43;;
10191;SDS011;17580;50.850;4.504;2022-07-29T01:50:33;1.30;;;1.30;;
10191;SDS011;17580;50.850;4.504;2022-07-29T01:53:04;1.37;;;1.30;;
10191;SDS011;17580;50.850;4.504;2022-07-29T01:55:36;1.47;;;1.40;;
10191;SDS011;17580;50.850;4.504;2022-07-29T01:58:05;2.90;;;1.60;;
10191;SDS011;17580;50.850;4.504;2022-07-29T02:00:34;1.60;;;1.37;;
10191;SDS011;17580;50.850;4.504;2022-07-29T02:03:02;1.23;;;1.23;;
10191;SDS011;17580;50.850;4.504;2022-07-29T02:05:33;1.50;;;1.40;;
10191;SDS011;17580;50.850;4.504;2022-07-29T02:08:01;1.60;;;1.50;;
10191;SDS011;17580;50.850;4.504;2022-07-29T02:10:30;1.50;;;1.50;;
10191;SDS011;17580;50.850;4.504;2022-07-29T02:12:59;1.77;;;1.43;;
10191;SDS011;17580;50.850;4.504;2022-07-29T02:15:28;2.40;;;1.33;;
10191;SDS011;17580;50.850;4.504;2022-07-29T02:17:59;1.20;;;1.20;;
10191;SDS011;17580;50.850;4.504;2022-07-29T02:20:28;5.73;;;1.70;;
10191;SDS011;17580;50.850;4.504;2022-07-29T02:22:56;1.50;;;1.40;;
10191;SDS011;17580;50.850;4.504;2022-07-29T02:25:24;1.70;;;1.27;;
10191;SDS011;17580;50.850;4.504;2022-07-29T02:27:52;2.03;;;1.40;;
10191;SDS011;17580;50.850;4.504;2022-07-29T02:30:21;3.13;;;1.50;;
10191;SDS011;17580;50.850;4.504;2022-07-29T02:32:50;2.07;;;1.40;;
10191;SDS011;17580;50.850;4.504;2022-07-29T02:35:19;1.23;;;1.23;;
10191;SDS011;17580;50.850;4.504;2022-07-29T02:37:47;1.53;;;1.43;;
10191;SDS011;17580;50.850;4.504;2022-07-29T02:40:35;2.70;;;1.87;;
10191;SDS011;17580;50.850;4.504;2022-07-29T02:43:05;1.60;;;1.47;;
10191;SDS011;17580;50.850;4.504;2022-07-29T02:45:33;1.30;;;1.30;;
10191;SDS011;17580;50.850;4.504;2022-07-29T02:48:02;3.50;;;1.37;;
10191;SDS011;17580;50.850;4.504;2022-07-29T02:50:37;1.63;;;1.53;;
10191;SDS011;17580;50.850;4.504;2022-07-29T02:53:08;2.60;;;1.60;;
10191;SDS011;17580;50.850;4.504;2022-07-29T02:55:43;2.00;;;1.60;;
10191;SDS011;17580;50.850;4.504;2022-07-29T02:58:13;2.50;;;1.33;;
10191;SDS011;17580;50.850;4.504;2022-07-29T03:00:45;1.10;;;1.00;;
10191;SDS011;17580;50.850;4.504;2022-07-29T03:03:15;1.57;;;1.47;;
10191;SDS011;17580;50.850;4.504;2022-07-29T03:05:45;1.33;;;1.30;;
10191;SDS011;17580;50.850;4.504;2022-07-29T03:08:12;1.90;;;1.20;;
10191;SDS011;17580;50.850;4.504;2022-07-29T03:10:42;2.50;;;1.50;;
10191;SDS011;17580;50.850;4.504;2022-07-29T03:13:12;1.80;;;1.40;;
10191;SDS011;17580;50.850;4.504;2022-07-29T03:15:39;1.37;;;1.33;;
10191;SDS011;17580;50.850;4.504;2022-07-29T03:18:08;1.30;;;1.20;;
10191;SDS011;17580;50.850;4.504;2022-07-29T03:20:36;1.30;;;1.30;;
10191;SDS011;17580;50.850;4.504;2022-07-29T03:23:05;1.33;;;1.30;;
10191;SDS011;17580;50.850;4.504;2022-07-29T03:25:32;3.73;;;1.90;;
10191;SDS011;17580;50.850;4.504;2022-07-29T03:27:59;1.30;;;1.20;;
10191;SDS011;17580;50.850;4.504;2022-07-29T03:30:26;1.33;;;1.30;;
10191;SDS011;17580;50.850;4.504;2022-07-29T03:32:55;1.20;;;1.20;;
10191;SDS011;17580;50.850;4.504;2022-07-29T03:35:22;1.50;;;1.40;;
10191;SDS011;17580;50.850;4.504;2022-07-29T03:37:49;1.60;;;1.50;;
10191;SDS011;17580;50.850;4.504;2022-07-29T03:40:18;2.83;;;1.63;;
10191;SDS011;17580;50.850;4.504;2022-07-29T03:42:48;1.30;;;1.30;;
10191;SDS011;17580;50.850;4.504;2022-07-29T03:45:18;1.40;;;1.30;;
10191;SDS011;17580;50.850;4.504;2022-07-29T03:47:47;1.33;;;1.23;;
10191;SDS011;17580;50.850;4.504;2022-07-29T03:50:16;1.20;;;1.20;;
10191;SDS011;17580;50.850;4.504;2022-07-29T03:52:45;1.03;;;1.03;;
10191;SDS011;17580;50.850;4.504;2022-07-29T03:55:13;2.17;;;1.50;;
10191;SDS011;17580;50.850;4.504;2022-07-29T03:57:43;1.80;;;1.40;;
10191;SDS011;17580;50.850;4.504;2022-07-29T04:00:11;2.93;;;1.50;;
10191;SDS011;17580;50.850;4.504;2022-07-29T04:02:40;1.30;;;1.30;;
10191;SDS011;17580;50.850;4.504;2022-07-29T04:05:11;1.80;;;1.70;;
10191;SDS011;17580;50.850;4.504;2022-07-29T04:07:38;1.40;;;1.30;;
10191;SDS011;17580;50.850;4.504;2022-07-29T04:10:05;1.40;;;1.40;;
10191;SDS011;17580;50.850;4.504;2022-07-29T04:12:33;1.63;;;1.40;;
10191;SDS011;17580;50.850;4.504;2022-07-29T04:15:01;1.60;;;1.50;;
10191;SDS011;17580;50.850;4.504;2022-07-29T04:17:28;2.03;;;1.43;;
10191;SDS011;17580;50.850;4.504;2022-07-29T04:19:55;1.40;;;1.30;;
10191;SDS011;17580;50.850;4.504;2022-07-29T04:22:22;5.17;;;1.83;;
10191;SDS011;17580;50.850;4.504;2022-07-29T04:24:49;2.30;;;1.40;;
10191;SDS011;17580;50.850;4.504;2022-07-29T04:27:16;1.60;;;1.50;;
10191;SDS011;17580;50.850;4.504;2022-07-29T04:29:43;3.90;;;1.40;;
10191;SDS011;17580;50.850;4.504;2022-07-29T04:32:11;1.40;;;1.30;;
10191;SDS011;17580;50.850;4.504;2022-07-29T04:34:38;1.43;;;1.27;;
10191;SDS011;17580;50.850;4.504;2022-07-29T04:37:05;1.50;;;1.40;;
10191;SDS011;17580;50.850;4.504;2022-07-29T04:39:32;1.63;;;1.53;;
10191;SDS011;17580;50.850;4.504;2022-07-29T04:41:59;2.60;;;1.60;;
10191;SDS011;17580;50.850;4.504;2022-07-29T04:44:26;1.83;;;1.73;;
10191;SDS011;17580;50.850;4.504;2022-07-29T04:46:53;3.83;;;1.50;;
10191;SDS011;17580;50.850;4.504;2022-07-29T04:49:22;2.50;;;1.37;;
10191;SDS011;17580;50.850;4.504;2022-07-29T04:51:48;4.10;;;1.80;;
10191;SDS011;17580;50.850;4.504;2022-07-29T04:54:15;2.53;;;1.60;;
10191;SDS011;17580;50.850;4.504;2022-07-29T04:56:42;2.83;;;1.70;;
10191;SDS011;17580;50.850;4.504;2022-07-29T04:59:11;1.50;;;1.40;;
10191;SDS011;17580;50.850;4.504;2022-07-29T05:01:38;1.53;;;1.47;;
10191;SDS011;17580;50.850;4.504;2022-07-29T05:04:05;1.70;;;1.60;;
10191;SDS011;17580;50.850;4.504;2022-07-29T05:06:33;2.07;;;1.70;;
10191;SDS011;17580;50.850;4.504;2022-07-29T05:09:00;4.43;;;1.70;;
10191;SDS011;17580;50.850;4.504;2022-07-29T05:11:30;2.73;;;1.80;;
10191;SDS011;17580;50.850;4.504;2022-07-29T05:13:56;2.10;;;2.00;;
10191;SDS011;17580;50.850;4.504;2022-07-29T05:16:23;2.40;;;1.77;;
10191;SDS011;17580;50.850;4.504;2022-07-29T05:18:50;1.63;;;1.53;;
10191;SDS011;17580;50.850;4.504;2022-07-29T05:21:17;1.63;;;1.60;;
10191;SDS011;17580;50.850;4.504;2022-07-29T05:23:45;3.50;;;1.93;;
10191;SDS011;17580;50.850;4.504;2022-07-29T05:26:12;4.20;;;1.97;;
10191;SDS011;17580;50.850;4.504;2022-07-29T05:28:39;1.80;;;1.70;;
10191;SDS011;17580;50.850;4.504;2022-07-29T05:31:06;2.93;;;1.83;;
10191;SDS011;17580;50.850;4.504;2022-07-29T05:33:33;2.87;;;1.80;;
10191;SDS011;17580;50.850;4.504;2022-07-29T05:36:00;1.83;;;1.73;;
10191;SDS011;17580;50.850;4.504;2022-07-29T05:38:27;1.87;;;1.87;;
10191;SDS011;17580;50.850;4.504;2022-07-29T05:40:57;1.93;;;1.80;;
10191;SDS011;17580;50.850;4.504;2022-07-29T05:43:24;1.63;;;1.53;;
10191;SDS011;17580;50.850;4.504;2022-07-29T05:45:51;1.50;;;1.50;;
10191;SDS011;17580;50.850;4.504;2022-07-29T05:48:18;2.10;;;2.00;;
10191;SDS011;17580;50.850;4.504;2022-07-29T05:50:45;2.30;;;2.10;;
10191;SDS011;17580;50.850;4.504;2022-07-29T05:53:12;3.40;;;2.33;;
10191;SDS011;17580;50.850;4.504;2022-07-29T05:55:39;2.83;;;2.00;;
10191;SDS011;17580;50.850;4.504;2022-07-29T05:58:07;1.97;;;1.87;;
10191;SDS011;17580;50.850;4.504;2022-07-29T06:00:34;2.43;;;2.23;;
10191;SDS011;17580;50.850;4.504;2022-07-29T06:03:01;2.83;;;2.17;;
10191;SDS011;17580;50.850;4.504;2022-07-29T06:05:28;1.80;;;1.80;;
10191;SDS011;17580;50.850;4.504;2022-07-29T06:07:55;3.50;;;2.23;;
10191;SDS011;17580;50.850;4.504;2022-07-29T06:10:22;2.07;;;1.80;;
10191;SDS011;17580;50.850;4.504;2022-07-29T06:12:49;2.00;;;1.90;;
10191;SDS011;17580;50.850;4.504;2022-07-29T06:15:17;2.50;;;2.30;;
10191;SDS011;17580;50.850;4.504;2022-07-29T06:17:44;2.47;;;1.90;;
10191;SDS011;17580;50.850;4.504;2022-07-29T06:20:11;2.33;;;2.10;;
10191;SDS011;17580;50.850;4.504;2022-07-29T06:22:38;2.40;;;2.20;;
10191;SDS011;17580;50.850;4.504;2022-07-29T06:25:05;3.53;;;2.30;;
10191;SDS011;17580;50.850;4.504;2022-07-29T06:27:33;2.07;;;1.90;;
10191;SDS011;17580;50.850;4.504;2022-07-29T06:30:00;3.53;;;2.10;;
10191;SDS011;17580;50.850;4.504;2022-07-29T06:32:28;1.90;;;1.80;;
10191;SDS011;17580;50.850;4.504;2022-07-29T06:34:56;4.03;;;2.10;;
10191;SDS011;17580;50.850;4.504;2022-07-29T06:37:23;1.90;;;1.80;;
10191;SDS011;17580;50.850;4.504;2022-07-29T06:39:49;1.90;;;1.80;;
10191;SDS011;17580;50.850;4.504;2022-07-29T06:42:37;2.03;;;1.80;;
10191;SDS011;17580;50.850;4.504;2022-07-29T06:45:07;2.03;;;1.93;;
10191;SDS011;17580;50.850;4.504;2022-07-29T06:47:36;2.97;;;1.93;;
10191;SDS011;17580;50.850;4.504;2022-07-29T06:50:04;4.03;;;1.97;;
10191;SDS011;17580;50.850;4.504;2022-07-29T06:52:32;2.00;;;1.90;;
10191;SDS011;17580;50.850;4.504;2022-07-29T06:54:58;2.27;;;2.07;;
10191;SDS011;17580;50.850;4.504;2022-07-29T06:57:25;2.03;;;1.90;;
10191;SDS011;17580;50.850;4.504;2022-07-29T06:59:55;3.63;;;2.20;;
10191;SDS011;17580;50.850;4.504;2022-07-29T07:02:22;2.60;;;2.27;;
10191;SDS011;17580;50.850;4.504;2022-07-29T07:04:51;2.40;;;2.30;;
10191;SDS011;17580;50.850;4.504;2022-07-29T07:07:18;3.40;;;2.47;;
10191;SDS011;17580;50.850;4.504;2022-07-29T07:09:44;2.20;;;2.10;;
10191;SDS011;17580;50.850;4.504;2022-07-29T07:12:11;2.53;;;2.10;;
10191;SDS011;17580;50.850;4.504;2022-07-29T07:14:38;2.60;;;2.40;;
10191;SDS011;17580;50.850;4.504;2022-07-29T07:17:06;2.40;;;2.20;;
10191;SDS011;17580;50.850;4.504;2022-07-29T07:19:33;2.17;;;2.07;;
10191;SDS011;17580;50.850;4.504;2022-07-29T07:22:01;2.80;;;2.50;;
10191;SDS011;17580;50.850;4.504;2022-07-29T07:24:28;4.00;;;2.40;;
10191;SDS011;17580;50.850;4.504;2022-07-29T07:26:55;2.50;;;2.37;;
10191;SDS011;17580;50.850;4.504;2022-07-29T07:29:21;3.10;;;2.50;;
10191;SDS011;17580;50.850;4.504;2022-07-29T07:31:48;3.70;;;2.40;;
10191;SDS011;17580;50.850;4.504;2022-07-29T07:34:15;4.20;;;2.23;;
10191;SDS011;17580;50.850;4.504;2022-07-29T07:36:42;2.83;;;2.47;;
10191;SDS011;17580;50.850;4.504;2022-07-29T07:39:10;2.10;;;2.00;;
10191;SDS011;17580;50.850;4.504;2022-07-29T07:41:37;2.80;;;2.13;;
10191;SDS011;17580;50.850;4.504;2022-07-29T07:44:04;2.43;;;2.23;;
10191;SDS011;17580;50.850;4.504;2022-07-29T07:46:31;2.20;;;2.10;;
10191;SDS011;17580;50.850;4.504;2022-07-29T07:48:58;2.23;;;2.03;;
10191;SDS011;17580;50.850;4.504;2022-07-29T07:51:25;2.40;;;2.20;;
10191;SDS011;17580;50.850;4.504;2022-07-29T07:53:52;2.17;;;2.03;;
10191;SDS011;17580;50.850;4.504;2022-07-29T07:56:20;2.53;;;2.33;;
10191;SDS011;17580;50.850;4.504;2022-07-29T07:58:47;3.00;;;2.77;;
10191;SDS011;17580;50.850;4.504;2022-07-29T08:01:14;3.07;;;2.87;;
10191;SDS011;17580;50.850;4.504;2022-07-29T08:03:43;2.60;;;2.50;;
10191;SDS011;17580;50.850;4.504;2022-07-29T08:06:10;2.37;;;2.17;;
10191;SDS011;17580;50.850;4.504;2022-07-29T08:08:37;2.30;;;2.20;;
10191;SDS011;17580;50.850;4.504;2022-07-29T08:11:04;2.60;;;2.50;;
10191;SDS011;17580;50.850;4.504;2022-07-29T08:13:33;3.07;;;2.80;;
10191;SDS011;17580;50.850;4.504;2022-07-29T08:16:00;3.10;;;2.80;;
10191;SDS011;17580;50.850;4.504;2022-07-29T08:18:28;2.63;;;2.53;;
10191;SDS011;17580;50.850;4.504;2022-07-29T08:20:57;3.53;;;2.60;;
10191;SDS011;17580;50.850;4.504;2022-07-29T08:23:24;5.30;;;2.40;;
10191;SDS011;17580;50.850;4.504;2022-07-29T08:25:52;3.17;;;2.40;;
10191;SDS011;17580;50.850;4.504;2022-07-29T08:28:18;2.20;;;2.10;;
10191;SDS011;17580;50.850;4.504;2022-07-29T08:30:47;2.63;;;2.40;;
10191;SDS011;17580;50.850;4.504;2022-07-29T08:33:13;2.60;;;2.40;;
10191;SDS011;17580;50.850;4.504;2022-07-29T08:35:40;2.40;;;2.17;;
10191;SDS011;17580;50.850;4.504;2022-07-29T08:38:07;4.00;;;2.90;;
10191;SDS011;17580;50.850;4.504;2022-07-29T08:40:34;2.10;;;2.00;;
10191;SDS011;17580;50.850;4.504;2022-07-29T08:43:05;3.93;;;2.13;;
10191;SDS011;17580;50.850;4.504;2022-07-29T08:45:36;3.27;;;2.40;;
10191;SDS011;17580;50.850;4.504;2022-07-29T08:48:12;2.33;;;2.23;;
10191;SDS011;17580;50.850;4.504;2022-07-29T08:50:39;2.47;;;2.27;;
10191;SDS011;17580;50.850;4.504;2022-07-29T08:53:08;2.60;;;2.40;;
10191;SDS011;17580;50.850;4.504;2022-07-29T08:55:38;2.50;;;2.30;;
10191;SDS011;17580;50.850;4.504;2022-07-29T08:58:06;2.77;;;2.40;;
10191;SDS011;17580;50.850;4.504;2022-07-29T09:00:33;5.43;;;2.73;;
10191;SDS011;17580;50.850;4.504;2022-07-29T09:03:02;2.97;;;2.30;;
10191;SDS011;17580;50.850;4.504;2022-07-29T09:05:32;2.27;;;2.07;;
10191;SDS011;17580;50.850;4.504;2022-07-29T09:08:00;3.63;;;2.30;;
10191;SDS011;17580;50.850;4.504;2022-07-29T09:10:27;2.20;;;1.90;;
10191;SDS011;17580;50.850;4.504;2022-07-29T09:12:55;2.93;;;2.23;;
10191;SDS011;17580;50.850;4.504;2022-07-29T09:15:22;3.93;;;2.37;;
10191;SDS011;17580;50.850;4.504;2022-07-29T09:17:49;2.47;;;2.27;;
10191;SDS011;17580;50.850;4.504;2022-07-29T09:20:16;1.97;;;1.80;;
10191;SDS011;17580;50.850;4.504;2022-07-29T09:22:45;8.83;;;2.03;;
10191;SDS011;17580;50.850;4.504;2022-07-29T09:25:14;4.03;;;1.37;;
10191;SDS011;17580;50.850;4.504;2022-07-29T09:28:04;2.70;;;1.77;;
10191;SDS011;17580;50.850;4.504;2022-07-29T09:30:32;1.60;;;1.50;;
10191;SDS011;17580;50.850;4.504;2022-07-29T09:32:59;2.37;;;1.63;;
10191;SDS011;17580;50.850;4.504;2022-07-29T09:35:28;2.60;;;1.67;;
10191;SDS011;17580;50.850;4.504;2022-07-29T09:37:56;3.23;;;1.70;;
10191;SDS011;17580;50.850;4.504;2022-07-29T09:40:25;1.50;;;1.40;;
10191;SDS011;17580;50.850;4.504;2022-07-29T09:42:53;1.70;;;1.60;;
10191;SDS011;17580;50.850;4.504;2022-07-29T09:45:28;2.77;;;1.97;;
10191;SDS011;17580;50.850;4.504;2022-07-29T09:47:56;1.90;;;1.80;;
10191;SDS011;17580;50.850;4.504;2022-07-29T09:50:34;1.70;;;1.60;;
10191;SDS011;17580;50.850;4.504;2022-07-29T09:53:04;2.67;;;1.40;;
10191;SDS011;17580;50.850;4.504;2022-07-29T09:55:32;1.65;;;1.55;;
10191;SDS011;17580;50.850;4.504;2022-07-29T10:00:41;1.90;;;1.80;;
10191;SDS011;17580;50.850;4.504;2022-07-29T10:03:09;1.70;;;1.60;;
10191;SDS011;17580;50.850;4.504;2022-07-29T10:05:36;2.63;;;1.92;;
10191;SDS011;17580;50.850;4.504;2022-07-29T10:08:05;2.13;;;1.92;;
10191;SDS011;17580;50.850;4.504;2022-07-29T10:10:34;3.42;;;1.90;;
10191;SDS011;17580;50.850;4.504;2022-07-29T10:13:03;2.25;;;1.80;;
10191;SDS011;17580;50.850;4.504;2022-07-29T10:15:32;1.70;;;1.60;;
10191;SDS011;17580;50.850;4.504;2022-07-29T10:18:02;1.80;;;1.70;;
10191;SDS011;17580;50.850;4.504;2022-07-29T10:20:29;1.80;;;1.60;;
10191;SDS011;17580;50.850;4.504;2022-07-29T10:22:56;2.22;;;2.03;;
10191;SDS011;17580;50.850;4.504;2022-07-29T10:25:26;3.28;;;1.80;;
10191;SDS011;17580;50.850;4.504;2022-07-29T10:27:54;3.95;;;2.08;;
10191;SDS011;17580;50.850;4.504;2022-07-29T10:30:22;2.97;;;2.15;;
10191;SDS011;17580;50.850;4.504;2022-07-29T10:35:44;6.15;;;2.13;;
10191;SDS011;17580;50.850;4.504;2022-07-29T10:38:39;2.30;;;2.10;;
10191;SDS011;17580;50.850;4.504;2022-07-29T10:41:13;2.40;;;1.85;;
10191;SDS011;17580;50.850;4.504;2022-07-29T10:43:54;2.88;;;1.83;;
10191;SDS011;17580;50.850;4.504;2022-07-29T10:46:23;2.45;;;1.73;;
10191;SDS011;17580;50.850;4.504;2022-07-29T10:49:10;1.60;;;1.50;;
10191;SDS011;17580;50.850;4.504;2022-07-29T10:51:58;2.00;;;1.90;;
10191;SDS011;17580;50.850;4.504;2022-07-29T10:54:43;1.80;;;1.70;;
10191;SDS011;17580;50.850;4.504;2022-07-29T10:57:27;1.98;;;1.88;;
10191;SDS011;17580;50.850;4.504;2022-07-29T11:02:57;1.80;;;1.70;;
10191;SDS011;17580;50.850;4.504;2022-07-29T11:05:25;2.55;;;1.90;;
10191;SDS011;17580;50.850;4.504;2022-07-29T11:10:45;2.10;;;1.92;;
10191;SDS011;17580;50.850;4.504;2022-07-29T11:13:13;2.05;;;1.95;;
10191;SDS011;17580;50.850;4.504;2022-07-29T11:16:16;1.70;;;1.60;;
10191;SDS011;17580;50.850;4.504;2022-07-29T11:21:47;2.72;;;1.70;;
10191;SDS011;17580;50.850;4.504;2022-07-29T11:24:16;2.40;;;1.65;;
10191;SDS011;17580;50.850;4.504;2022-07-29T11:26:46;1.90;;;1.80;;
10191;SDS011;17580;50.850;4.504;2022-07-29T11:29:39;1.83;;;1.70;;
10191;SDS011;17580;50.850;4.504;2022-07-29T11:32:14;3.10;;;1.88;;
10191;SDS011;17580;50.850;4.504;2022-07-29T11:34:44;1.88;;;1.77;;
10191;SDS011;17580;50.850;4.504;2022-07-29T11:37:22;1.73;;;1.63;;
10191;SDS011;17580;50.850;4.504;2022-07-29T11:42:47;1.80;;;1.70;;
10191;SDS011;17580;50.850;4.504;2022-07-29T11:45:17;1.93;;;1.80;;
10191;SDS011;17580;50.850;4.504;2022-07-29T11:47:53;1.87;;;1.77;;
10191;SDS011;17580;50.850;4.504;2022-07-29T11:50:27;2.13;;;1.53;;
10191;SDS011;17580;50.850;4.504;2022-07-29T11:52:55;2.20;;;1.50;;
10191;SDS011;17580;50.850;4.504;2022-07-29T11:55:26;1.83;;;1.50;;
10191;SDS011;17580;50.850;4.504;2022-07-29T11:57:54;1.50;;;1.50;;
10191;SDS011;17580;50.850;4.504;2022-07-29T12:00:26;1.63;;;1.40;;
10191;SDS011;17580;50.850;4.504;2022-07-29T12:02:55;2.27;;;1.83;;
10191;SDS011;17580;50.850;4.504;2022-07-29T12:05:30;2.57;;;1.50;;
10191;SDS011;17580;50.850;4.504;2022-07-29T12:08:10;1.90;;;1.80;;
10191;SDS011;17580;50.850;4.504;2022-07-29T12:10:38;2.10;;;1.90;;
10191;SDS011;17580;50.850;4.504;2022-07-29T12:13:06;4.10;;;2.07;;
10191;SDS011;17580;50.850;4.504;2022-07-29T12:15:34;3.53;;;1.83;;
10191;SDS011;17580;50.850;4.504;2022-07-29T12:18:12;2.27;;;2.00;;
10191;SDS011;17580;50.850;4.504;2022-07-29T12:20:40;1.70;;;1.60;;
10191;SDS011;17580;50.850;4.504;2022-07-29T12:23:08;2.07;;;1.87;;
10191;SDS011;17580;50.850;4.504;2022-07-29T12:25:37;2.00;;;1.90;;
10191;SDS011;17580;50.850;4.504;2022-07-29T12:28:06;2.20;;;2.03;;
10191;SDS011;17580;50.850;4.504;2022-07-29T12:30:36;2.17;;;1.97;;
10191;SDS011;17580;50.850;4.504;2022-07-29T12:33:12;3.53;;;1.57;;
10191;SDS011;17580;50.850;4.504;2022-07-29T12:35:41;2.30;;;1.93;;
10191;SDS011;17580;50.850;4.504;2022-07-29T12:38:10;2.17;;;1.97;;
10191;SDS011;17580;50.850;4.504;2022-07-29T12:40:38;1.90;;;1.50;;
10191;SDS011;17580;50.850;4.504;2022-07-29T12:43:06;6.30;;;2.30;;
10191;SDS011;17580;50.850;4.504;2022-07-29T12:45:35;2.03;;;1.93;;
10191;SDS011;17580;50.850;4.504;2022-07-29T12:48:03;2.10;;;1.90;;
10191;SDS011;17580;50.850;4.504;2022-07-29T12:50:30;4.00;;;2.42;;
10191;SDS011;17580;50.850;4.504;2022-07-29T12:53:07;2.05;;;1.95;;
10191;SDS011;17580;50.850;4.504;2022-07-29T12:55:42;3.33;;;2.17;;
10191;SDS011;17580;50.850;4.504;2022-07-29T12:58:13;3.40;;;2.53;;
10191;SDS011;17580;50.850;4.504;2022-07-29T13:00:59;3.07;;;2.27;;
10191;SDS011;17580;50.850;4.504;2022-07-29T13:03:28;3.50;;;2.25;;
10191;SDS011;17580;50.850;4.504;2022-07-29T13:05:55;3.00;;;1.95;;
10191;SDS011;17580;50.850;4.504;2022-07-29T13:08:22;2.42;;;2.22;;
10191;SDS011;17580;50.850;4.504;2022-07-29T13:10:49;1.90;;;1.80;;
10191;SDS011;17580;50.850;4.504;2022-07-29T13:13:16;2.33;;;2.13;;
10191;SDS011;17580;50.850;4.504;2022-07-29T13:15:43;3.20;;;2.67;;
10191;SDS011;17580;50.850;4.504;2022-07-29T13:18:28;3.57;;;2.07;;
10191;SDS011;17580;50.850;4.504;2022-07-29T13:20:58;2.03;;;1.80;;
10191;SDS011;17580;50.850;4.504;2022-07-29T13:23:37;2.60;;;2.43;;
10191;SDS011;17580;50.850;4.504;2022-07-29T13:26:04;3.73;;;2.10;;
10191;SDS011;17580;50.850;4.504;2022-07-29T13:28:32;2.30;;;2.10;;
10191;SDS011;17580;50.850;4.504;2022-07-29T13:30:59;2.50;;;2.30;;
10191;SDS011;17580;50.850;4.504;2022-07-29T13:33:26;2.40;;;2.17;;
10191;SDS011;17580;50.850;4.504;2022-07-29T13:35:54;2.60;;;2.23;;
10191;SDS011;17580;50.850;4.504;2022-07-29T13:38:21;2.83;;;2.10;;
10191;SDS011;17580;50.850;4.504;2022-07-29T13:40:48;3.63;;;2.20;;
10191;SDS011;17580;50.850;4.504;2022-07-29T13:43:15;1.77;;;1.67;;
10191;SDS011;17580;50.850;4.504;2022-07-29T13:45:42;2.57;;;2.37;;
10191;SDS011;17580;50.850;4.504;2022-07-29T13:48:09;2.53;;;2.30;;
10191;SDS011;17580;50.850;4.504;2022-07-29T13:50:36;5.30;;;2.00;;
10191;SDS011;17580;50.850;4.504;2022-07-29T13:53:04;2.83;;;2.00;;
10191;SDS011;17580;50.850;4.504;2022-07-29T13:55:31;11.77;;;2.50;;
10191;SDS011;17580;50.850;4.504;2022-07-29T13:57:59;3.60;;;2.43;;
10191;SDS011;17580;50.850;4.504;2022-07-29T14:00:26;2.40;;;2.20;;
10191;SDS011;17580;50.850;4.504;2022-07-29T14:02:53;2.67;;;2.10;;
10191;SDS011;17580;50.850;4.504;2022-07-29T14:05:20;4.17;;;2.20;;
10191;SDS011;17580;50.850;4.504;2022-07-29T14:07:47;1.90;;;1.70;;
10191;SDS011;17580;50.850;4.504;2022-07-29T14:10:15;5.17;;;1.70;;
10191;SDS011;17580;50.850;4.504;2022-07-29T14:12:42;3.27;;;2.00;;
10191;SDS011;17580;50.850;4.504;2022-07-29T14:15:09;1.70;;;1.60;;
10191;SDS011;17580;50.850;4.504;2022-07-29T14:17:36;3.47;;;1.77;;
10191;SDS011;17580;50.850;4.504;2022-07-29T14:20:03;2.60;;;1.73;;
10191;SDS011;17580;50.850;4.504;2022-07-29T14:22:31;2.90;;;1.70;;
10191;SDS011;17580;50.850;4.504;2022-07-29T14:24:58;1.87;;;1.70;;
10191;SDS011;17580;50.850;4.504;2022-07-29T14:27:26;1.80;;;1.70;;
10191;SDS011;17580;50.850;4.504;2022-07-29T14:29:53;2.37;;;1.50;;
10191;SDS011;17580;50.850;4.504;2022-07-29T14:32:20;2.30;;;1.80;;
10191;SDS011;17580;50.850;4.504;2022-07-29T14:34:47;1.70;;;1.60;;
10191;SDS011;17580;50.850;4.504;2022-07-29T14:37:14;1.77;;;1.67;;
10191;SDS011;17580;50.850;4.504;2022-07-29T14:39:41;2.27;;;1.70;;
10191;SDS011;17580;50.850;4.504;2022-07-29T14:42:08;1.83;;;1.63;;
10191;SDS011;17580;50.850;4.504;2022-07-29T14:44:36;1.70;;;1.60;;
10191;SDS011;17580;50.850;4.504;2022-07-29T14:47:03;3.73;;;1.90;;
10191;SDS011;17580;50.850;4.504;2022-07-29T14:49:30;4.27;;;1.63;;
10191;SDS011;17580;50.850;4.504;2022-07-29T14:51:57;1.53;;;1.43;;
10191;SDS011;17580;50.850;4.504;2022-07-29T14:54:24;1.67;;;1.57;;
10191;SDS011;17580;50.850;4.504;2022-07-29T14:56:51;3.30;;;1.87;;
10191;SDS011;17580;50.850;4.504;2022-07-29T14:59:21;1.60;;;1.50;;
10191;SDS011;17580;50.850;4.504;2022-07-29T15:01:50;1.67;;;1.40;;
10191;SDS011;17580;50.850;4.504;2022-07-29T15:04:17;15.07;;;2.57;;
10191;SDS011;17580;50.850;4.504;2022-07-29T15:06:44;1.50;;;1.50;;
10191;SDS011;17580;50.850;4.504;2022-07-29T15:09:10;1.93;;;1.30;;
10191;SDS011;17580;50.850;4.504;2022-07-29T15:11:39;1.33;;;1.23;;
10191;SDS011;17580;50.850;4.504;2022-07-29T15:14:06;1.50;;;1.40;;
10191;SDS011;17580;50.850;4.504;2022-07-29T15:16:36;3.57;;;1.50;;